Time;durP1;ratioP1;P1;durP2;ratioP2;P2;SDS_P1;SDS_P2;PMS_P1;PMS_P2;Temp;Humidity;BMP_temperature;BMP_pressure;BME280_temperature;BME280_humidity;BME280_pressure;Samples;Min_cycle;Max_cycle;Signal;HPM_P1;HPM_P2
2022/11/14 00:01:32;;;;;;;0.00;0.00;;;;;;;13.34;100.00;99974.03;6016685;23;20391;-79
2022/11/14 00:04:56;;;;;;;0.00;0.00;;;;;;;13.26;100.00;99980.19;5989718;23;20091;-76
2022/11/14 00:07:42;;;;;;;0.00;0.00;;;;;;;13.25;100.00;99976.59;6006588;23;20004;-75
2022/11/14 00:10:11;;;;;;;0.00;0.00;;;;;;;13.14;100.00;99964.13;5992456;23;20366;-77
2022/11/14 00:12:44;;;;;;;0.00;0.00;;;;;;;13.13;100.00;99956.16;6018476;23;20058;-78
2022/11/14 00:15:25;;;;;;;;;;;;;;;;;;;;;
2022/11/14 00:17:58;;;;;;;0.00;0.00;;;;;;;13.23;100.00;99948.63;6112677;23;20035;-75
2022/11/14 00:20:23;;;;;;;0.00;0.00;;;;;;;13.30;100.00;99948.25;6142165;23;20016;-75
2022/11/14 00:22:51;;;;;;;0.00;0.00;;;;;;;13.36;100.00;99941.63;6141607;23;20012;-75
2022/11/14 00:29:07;;;;;;;0.00;0.00;;;;;;;13.34;100.00;99952.06;6077044;23;20378;-77
2022/11/14 00:31:42;;;;;;;;;;;;;;;;;;;;;
2022/11/14 00:34:11;;;;;;;0.00;0.00;;;;;;;13.43;100.00;99955.81;6171875;23;20036;-77
2022/11/14 00:36:44;;;;;;;0.00;0.00;;;;;;;13.48;100.00;99952.16;6164500;23;20036;-77
2022/11/14 00:39:21;;;;;;;0.00;0.00;;;;;;;13.51;100.00;99962.56;6167403;23;19997;-76
2022/11/14 00:41:55;;;;;;;0.00;0.00;;;;;;;13.51;100.00;99962.56;6165610;23;20035;-77
2022/11/14 00:44:21;;;;;;;0.00;0.00;;;;;;;13.55;100.00;99962.75;6193174;23;20053;-73
2022/11/14 00:46:46;;;;;;;0.00;0.00;;;;;;;13.61;100.00;99961.59;6161167;23;20005;-74
2022/11/14 00:49:11;;;;;;;0.00;0.00;;;;;;;13.59;100.00;99953.66;6167336;23;20017;-75
2022/11/14 00:51:39;;;;;;;0.00;0.00;;;;;;;13.64;100.00;99961.00;6141133;23;20013;-74
2022/11/14 00:54:05;;;;;;;0.00;0.00;;;;;;;13.49;100.00;99942.81;6198547;23;20005;-74
2022/11/14 00:56:33;;;;;;;0.00;0.00;;;;;;;13.43;100.00;99950.31;6172169;23;20684;-76
2022/11/14 00:58:58;;;;;;;0.05;0.05;;;;;;;13.48;100.00;99952.16;6144153;23;20004;-77
2022/11/14 01:01:24;;;;;;;0.00;0.00;;;;;;;13.43;100.00;99936.59;6168596;23;20561;-77
2022/11/14 01:04:01;;;;;;;;;;;;;;;;;;;;;
2022/11/14 01:06:26;;;;;;;0.00;0.00;;;;;;;13.55;100.00;99940.78;6195999;23;20024;-76
2022/11/14 01:08:52;;;;;;;0.00;0.00;;;;;;;13.57;100.00;99927.59;6183554;23;20019;-77
2022/11/14 01:11:20;;;;;;;3.25;2.65;;;;;;;13.57;100.00;99927.59;6203795;23;20053;-76
2022/11/14 01:13:51;;;;;;;0.00;0.00;;;;;;;13.46;100.00;99909.63;6202609;23;20040;-77
2022/11/14 01:16:18;;;;;;;0.00;0.00;;;;;;;13.49;100.00;99920.00;6179085;23;20012;-77
2022/11/14 01:18:49;;;;;;;0.00;0.00;;;;;;;13.49;100.00;99914.53;6181332;23;20001;-78
2022/11/14 01:21:17;;;;;;;0.00;0.00;;;;;;;13.48;100.00;99907.38;6182370;23;20004;-77
2022/11/14 01:23:42;;;;;;;0.00;0.00;;;;;;;13.54;100.00;99900.72;6180513;23;20000;-78
2022/11/14 01:26:13;;;;;;;0.00;0.00;;;;;;;13.48;100.00;99888.16;6201402;23;20491;-79
2022/11/14 01:28:49;;;;;;;;;;;;;;;;;;;;;
2022/11/14 01:31:18;;;;;;;0.00;0.00;;;;;;;13.39;100.00;99883.34;6228823;23;20008;-78
2022/11/14 01:34:14;;;;;;;;;;;;;;;;;;;;;
2022/11/14 01:36:42;;;;;;;0.00;0.00;;;;;;;13.47;100.00;99900.28;6231249;23;20001;-78
2022/11/14 01:39:13;;;;;;;0.00;0.00;;;;;;;13.40;100.00;99893.25;6200047;23;20123;-77
2022/11/14 01:42:21;;;;;;;0.00;0.00;;;;;;;13.40;100.00;99885.00;6200439;23;20011;-77
2022/11/14 01:51:53;;;;;;;0.00;0.00;;;;;;;13.70;100.00;99913.09;6126754;23;20003;-78
2022/11/14 01:54:44;;;;;;;0.00;0.00;;;;;;;13.63;100.00;99904.41;6200809;23;20000;-77
2022/11/14 01:57:24;;;;;;;0.00;0.00;;;;;;;13.50;100.00;99872.22;6200192;23;20020;-78
2022/11/14 01:59:57;;;;;;;0.00;0.00;;;;;;;13.49;100.00;99865.06;6197510;23;20441;-77
2022/11/14 02:02:31;;;;;;;0.00;0.00;;;;;;;13.58;100.00;99877.84;6228548;23;20004;-77
2022/11/14 02:05:05;;;;;;;0.00;0.00;;;;;;;13.49;100.00;99862.34;6198716;23;20000;-78
2022/11/14 02:07:51;;;;;;;0.00;0.00;;;;;;;13.56;100.00;99865.50;6199330;23;20011;-77
2022/11/14 02:13:09;;;;;;;0.10;0.10;;;;;;;13.50;100.00;99862.03;6194304;23;20044;-76
2022/11/14 02:15:49;;;;;;;0.00;0.00;;;;;;;13.49;100.00;99863.16;6166210;23;20280;-78
2022/11/14 02:18:25;;;;;;;;;;;;;;;;;;;;;
2022/11/14 02:20:50;;;;;;;0.00;0.00;;;;;;;13.48;100.00;99857.94;6195162;23;20025;-78
2022/11/14 02:23:37;;;;;;;0.00;0.00;;;;;;;13.50;100.00;99858.47;6146765;23;20028;-77
2022/11/14 02:26:07;;;;;;;6.75;2.53;;;;;;;13.52;100.00;99856.22;6165808;23;20084;-77
2022/11/14 02:28:33;;;;;;;0.00;0.00;;;;;;;13.53;100.00;99863.38;6172445;23;20005;-76
2022/11/14 02:30:59;;;;;;;0.00;0.00;;;;;;;13.49;100.00;99859.59;6196401;23;20016;-77
2022/11/14 02:33:42;;;;;;;0.00;0.00;;;;;;;13.38;100.00;99837.78;6196309;23;20008;-77
2022/11/14 02:36:31;;;;;;;0.00;0.00;;;;;;;13.32;100.00;99816.97;6196165;23;20335;-77
2022/11/14 02:39:02;;;;;;;0.00;0.00;;;;;;;13.43;100.00;99828.63;6171584;23;20316;-78
2022/11/14 02:41:30;;;;;;;0.00;0.00;;;;;;;13.51;100.00;99824.41;6171986;23;20008;-77
2022/11/14 02:43:55;;;;;;;0.00;0.00;;;;;;;13.45;100.00;99820.94;6199677;23;20056;-76
2022/11/14 02:46:23;;;;;;;0.00;0.00;;;;;;;13.50;100.00;99828.25;6172145;23;20015;-76
2022/11/14 02:48:49;;;;;;;0.00;0.00;;;;;;;13.52;100.00;99826.03;6149471;23;20089;-77
2022/11/14 02:51:20;;;;;;;0.00;0.00;;;;;;;13.48;100.00;99823.06;6149792;23;20001;-76
2022/11/14 02:53:45;;;;;;;0.00;0.00;;;;;;;13.49;100.00;99819.22;6175751;23;20001;-77
2022/11/14 02:56:11;;;;;;;0.00;0.00;;;;;;;13.42;100.00;99805.06;6199673;23;20011;-77
2022/11/14 02:58:36;;;;;;;0.00;0.00;;;;;;;13.43;100.00;99818.50;6169723;23;20065;-76
2022/11/14 03:01:02;;;;;;;0.00;0.00;;;;;;;13.41;100.00;99817.94;6194856;23;20088;-77
2022/11/14 03:03:54;;;;;;;0.00;0.00;;;;;;;13.24;100.00;99806.66;6140640;23;20060;-77
2022/11/14 03:06:20;;;;;;;0.00;0.00;;;;;;;13.14;100.00;99793.09;6164504;23;20082;-78
2022/11/14 03:08:45;;;;;;;0.00;0.00;;;;;;;13.09;100.00;99794.81;6151434;23;20977;-76
2022/11/14 03:11:11;;;;;;;0.00;0.00;;;;;;;13.05;100.00;99795.72;6173463;23;20004;-76
2022/11/14 03:13:37;;;;;;;0.00;0.00;;;;;;;12.95;100.00;99782.13;6197876;23;20354;-77
2022/11/14 03:16:12;;;;;;;0.00;0.00;;;;;;;12.82;100.00;99781.78;6178947;23;20060;-78
2022/11/14 03:18:40;;;;;;;0.00;0.00;;;;;;;12.72;100.00;99776.44;6204053;23;19997;-78
2022/11/14 03:21:19;;;;;;;0.00;0.00;;;;;;;12.70;100.00;99784.97;6200915;23;20343;-76
2022/11/14 03:23:50;;;;;;;0.00;0.00;;;;;;;12.73;100.00;99778.91;6200808;23;20019;-77
2022/11/14 03:26:18;;;;;;;0.00;0.00;;;;;;;12.71;100.00;99767.38;6199238;23;20005;-76
2022/11/14 03:28:53;;;;;;;0.00;0.00;;;;;;;12.72;100.00;99766.28;6201953;23;20012;-76
2022/11/14 03:31:21;;;;;;;0.00;0.00;;;;;;;12.80;100.00;99772.22;6180926;23;20008;-75
2022/11/14 03:33:46;;;;;;;0.00;0.00;;;;;;;12.77;100.00;99772.81;6200331;23;20019;-77
2022/11/14 03:36:14;;;;;;;0.00;0.00;;;;;;;12.77;100.00;99779.09;6177316;23;20008;-77
2022/11/14 03:38:47;;;;;;;0.00;0.00;;;;;;;12.82;100.00;99775.47;6200256;23;20024;-77
2022/11/14 03:41:56;;;;;;;0.00;0.00;;;;;;;12.92;100.00;99780.81;6204046;23;20016;-79
2022/11/14 03:44:45;;;;;;;0.00;0.00;;;;;;;12.94;100.00;99789.56;6192906;23;20021;-80
2022/11/14 03:47:34;;;;;;;0.00;0.00;;;;;;;12.91;100.00;99790.16;6188503;23;20004;-82
2022/11/14 03:50:27;;;;;;;0.00;0.00;;;;;;;12.85;100.00;99761.16;6232553;23;20013;-81
2022/11/14 03:53:27;;;;;;;;;;;;;;;;;;;;;
2022/11/14 03:56:08;;;;;;;;;;;;;;;;;;;;;
2022/11/14 03:59:18;;;;;;;;;;;;;;;;;;;;;
2022/11/14 04:02:07;;;;;;;0.00;0.00;;;;;;;12.89;100.00;99775.91;6215571;23;20011;-80
2022/11/14 04:04:53;;;;;;;;;;;;;;;;;;;;;
2022/11/14 04:07:30;;;;;;;0.00;0.00;;;;;;;12.84;100.00;99793.28;6204567;23;20035;-79
2022/11/14 04:09:58;;;;;;;0.00;0.00;;;;;;;12.73;100.00;99776.16;6179136;23;20013;-77
2022/11/14 04:12:24;;;;;;;0.00;0.00;;;;;;;12.66;100.00;99770.22;6175525;23;20120;-76
2022/11/14 04:14:49;;;;;;;0.55;0.55;;;;;;;12.77;100.00;99789.28;6227851;23;20031;-79
2022/11/14 04:17:15;;;;;;;0.00;0.00;;;;;;;12.78;100.00;99790.91;6201961;23;20036;-78
2022/11/14 04:19:52;;;;;;;0.00;0.00;;;;;;;12.72;100.00;99788.22;6201277;23;20004;-77
2022/11/14 04:22:20;;;;;;;0.00;0.00;;;;;;;12.61;100.00;99772.22;6180215;23;20009;-79
2022/11/14 04:24:49;;;;;;;0.10;0.10;;;;;;;12.69;100.00;99793.50;6177090;23;20020;-79
2022/11/14 04:27:20;;;;;;;0.00;0.00;;;;;;;12.53;100.00;99768.22;6202714;23;20587;-77
2022/11/14 04:29:45;;;;;;;0.00;0.00;;;;;;;12.52;100.00;99780.28;6201171;23;20339;-78
2022/11/14 04:32:25;;;;;;;0.00;0.00;;;;;;;12.25;100.00;99751.56;6202603;23;20028;-78
2022/11/14 04:34:54;;;;;;;0.00;0.00;;;;;;;12.30;100.00;99765.19;6228557;23;20031;-78
2022/11/14 04:37:38;;;;;;;0.00;0.00;;;;;;;12.29;100.00;99762.75;6204555;23;20039;-80
2022/11/14 04:40:17;;;;;;;;;;;;;;;;;;;;;
2022/11/14 04:42:47;;;;;;;0.00;0.00;;;;;;;12.13;100.00;99748.41;6228604;23;20031;-78
2022/11/14 04:45:16;;;;;;;0.03;0.03;;;;;;;12.00;100.00;99728.84;6202062;23;20032;-78
2022/11/14 04:47:42;;;;;;;0.00;0.00;;;;;;;12.15;100.00;99751.66;6204753;23;20000;-77
2022/11/14 04:50:21;;;;;;;;;;;;;;;;;;;;;
2022/11/14 04:52:51;;;;;;;0.00;0.00;;;;;;;12.09;100.00;99748.19;6232065;23;20012;-76
2022/11/14 04:55:36;;;;;;;;;;;;;;;;;;;;;
2022/11/14 04:59:13;;;;;;;0.00;0.00;;;;;;;12.11;100.00;99740.50;6233565;23;19996;-78
2022/11/14 05:01:50;;;;;;;0.00;0.00;;;;;;;11.99;100.00;99716.25;6204900;23;20009;-78
2022/11/14 05:05:32;;;;;;;0.00;0.00;;;;;;;12.04;100.00;99718.91;6206671;23;20016;-78
2022/11/14 05:08:07;;;;;;;;;;;;;;;;;;;;;
2022/11/14 05:10:56;;;;;;;0.00;0.00;;;;;;;12.18;100.00;99729.19;6181050;23;20021;-80
2022/11/14 05:13:22;;;;;;;0.00;0.00;;;;;;;12.21;100.00;99717.63;6182341;23;20005;-78
2022/11/14 05:16:22;;;;;;;;;;;;;;;;;;;;;
2022/11/14 05:18:41;;;;;;;0.00;0.00;;;;;;;12.12;100.00;99702.94;6200796;23;19997;-79
2022/11/14 05:21:21;;;;;;;0.00;0.00;;;;;;;12.33;100.00;99725.41;6179173;23;20005;-78
2022/11/14 05:24:04;;;;;;;0.00;0.00;;;;;;;12.39;100.00;99725.03;6204022;23;20133;-80
2022/11/14 05:26:45;;;;;;;;;;;;;;;;;;;;;
2022/11/14 05:29:21;;;;;;;;;;;;;;;;;;;;;
2022/11/14 05:31:56;;;;;;;0.00;0.00;;;;;;;12.39;100.00;99696.81;6198434;23;20369;-77
2022/11/14 05:34:27;;;;;;;0.00;0.00;;;;;;;12.37;100.00;99690.81;6200910;23;20001;-79
2022/11/14 05:37:07;;;;;;;0.00;0.00;;;;;;;12.44;100.00;99704.16;6175495;23;20012;-78
2022/11/14 05:39:50;;;;;;;0.00;0.00;;;;;;;12.34;100.00;99697.72;6151960;23;20001;-77
2022/11/14 05:42:16;;;;;;;0.00;0.00;;;;;;;12.35;100.00;99710.31;6171853;23;20005;-76
2022/11/14 05:44:43;;;;;;;0.00;0.00;;;;;;;12.29;100.00;99708.72;6195148;23;20261;-77
2022/11/14 05:47:56;;;;;;;0.00;0.00;;;;;;;12.35;100.00;99715.81;6196294;23;20025;-79
2022/11/14 05:50:45;;;;;;;0.00;0.00;;;;;;;12.47;100.00;99709.03;6173105;23;20015;-78
2022/11/14 05:53:11;;;;;;;0.00;0.00;;;;;;;12.45;100.00;99701.13;6184389;23;20040;-76
2022/11/14 05:55:36;;;;;;;0.00;0.00;;;;;;;12.48;100.00;99700.50;6195644;23;20009;-78
2022/11/14 05:58:04;;;;;;;0.00;0.00;;;;;;;12.49;100.00;99701.34;6172260;23;20016;-76
2022/11/14 06:00:29;;;;;;;0.00;0.00;;;;;;;12.53;100.00;99702.41;6197487;23;20068;-75
2022/11/14 06:02:55;;;;;;;0.00;0.00;;;;;;;12.48;100.00;99699.72;6149789;23;20020;-77
2022/11/14 06:05:22;;;;;;;0.00;0.00;;;;;;;12.50;100.00;99713.94;6200397;23;20025;-77
2022/11/14 06:07:56;;;;;;;0.00;0.00;;;;;;;12.47;100.00;99722.75;6173443;23;20052;-78
2022/11/14 06:10:24;;;;;;;0.00;0.00;;;;;;;12.36;100.00;99703.69;6200032;23;20028;-77
2022/11/14 06:12:55;;;;;;;0.00;0.00;;;;;;;12.25;100.00;99691.28;6172503;23;20013;-78
2022/11/14 06:15:21;;;;;;;0.00;0.00;;;;;;;12.31;100.00;99703.78;6174095;23;20032;-78
2022/11/14 06:18:06;;;;;;;;;;;;;;;;;;;;;
2022/11/14 06:20:32;;;;;;;0.00;0.00;;;;;;;12.30;100.00;99713.13;6200649;23;19993;-76
2022/11/14 06:23:08;;;;;;;0.00;0.00;;;;;;;12.32;100.00;99716.38;6173296;23;20016;-78
2022/11/14 06:25:33;;;;;;;0.00;0.00;;;;;;;12.31;100.00;99711.19;6151517;23;20012;-78
2022/11/14 06:27:59;;;;;;;0.00;0.00;;;;;;;12.34;100.00;99708.69;6172497;23;20016;-76
2022/11/14 06:30:27;;;;;;;0.00;0.00;;;;;;;12.31;100.00;99701.03;6150545;23;20397;-77
2022/11/14 06:32:58;;;;;;;0.00;0.00;;;;;;;12.33;100.00;99708.97;6177311;23;20009;-76
2022/11/14 06:35:37;;;;;;;;;;;;;;;;;;;;;
2022/11/14 06:38:03;;;;;;;0.00;0.00;;;;;;;12.32;100.00;99713.63;6202345;23;20004;-76
2022/11/14 06:40:30;;;;;;;0.00;0.00;;;;;;;12.35;100.00;99706.75;6174380;23;20001;-77
2022/11/14 06:42:59;;;;;;;0.00;0.00;;;;;;;12.41;100.00;99722.00;6199712;23;20001;-77
2022/11/14 06:45:25;;;;;;;0.00;0.00;;;;;;;12.41;100.00;99722.00;6147519;23;20076;-77
2022/11/14 06:47:50;;;;;;;0.00;0.00;;;;;;;12.38;100.00;99706.16;6175061;23;20029;-78
2022/11/14 06:50:16;;;;;;;0.00;0.00;;;;;;;12.42;100.00;99712.69;6172104;23;20001;-79
2022/11/14 06:52:47;;;;;;;0.00;0.00;;;;;;;12.46;100.00;99712.91;6174921;23;20005;-76
2022/11/14 06:55:22;;;;;;;0.00;0.00;;;;;;;12.54;100.00;99709.50;6173829;23;20016;-76
2022/11/14 06:57:53;;;;;;;0.00;0.00;;;;;;;12.52;100.00;99707.03;6152211;23;20005;-77
2022/11/14 07:00:30;;;;;;;0.00;0.00;;;;;;;12.53;100.00;99699.66;6174189;23;20024;-77
2022/11/14 07:02:55;;;;;;;0.00;0.00;;;;;;;12.59;100.00;99714.91;6148427;23;20328;-79
2022/11/14 07:05:30;;;;;;;0.00;0.00;;;;;;;12.67;100.00;99713.41;6198556;23;20001;-78
2022/11/14 07:08:07;;;;;;;0.00;0.00;;;;;;;12.71;100.00;99707.03;6148830;23;20012;-77
2022/11/14 07:10:46;;;;;;;;;;;;;;;;;;;;;
2022/11/14 07:13:14;;;;;;;0.00;0.00;;;;;;;12.92;100.00;99698.47;6198626;23;20028;-75
2022/11/14 07:16:08;;;;;;;0.00;0.00;;;;;;;12.86;100.00;99688.72;6170937;23;20009;-75
2022/11/14 07:18:34;;;;;;;0.00;0.00;;;;;;;13.01;100.00;99690.38;6174300;23;20001;-78
2022/11/14 07:21:04;;;;;;;0.00;0.00;;;;;;;13.01;100.00;99688.47;6123787;23;20008;-79
2022/11/14 07:23:34;;;;;;;0.10;0.10;;;;;;;13.16;100.00;99686.56;6172374;23;20012;-78
2022/11/14 07:26:02;;;;;;;0.00;0.00;;;;;;;13.14;100.00;99691.53;6197253;23;20001;-77
2022/11/14 07:28:27;;;;;;;0.00;0.00;;;;;;;13.05;100.00;99689.50;6200021;23;20008;-78
2022/11/14 07:30:53;;;;;;;0.00;0.00;;;;;;;12.95;100.00;99678.66;6173117;23;20016;-78
2022/11/14 07:33:26;;;;;;;0.00;0.00;;;;;;;12.98;100.00;99672.59;6182175;23;20004;-78
2022/11/14 07:35:52;;;;;;;0.00;0.00;;;;;;;12.92;100.00;99679.28;6147246;23;20037;-79
2022/11/14 07:38:26;;;;;;;0.00;0.00;;;;;;;12.85;100.00;99681.56;6172952;23;20037;-77
2022/11/14 07:40:58;;;;;;;0.00;0.00;;;;;;;12.90;100.00;99690.53;6172453;23;20009;-78
2022/11/14 07:43:27;;;;;;;0.00;0.00;;;;;;;12.96;100.00;99710.50;6173254;23;20005;-78
2022/11/14 07:45:53;;;;;;;0.00;0.00;;;;;;;12.88;100.00;99697.47;6200861;23;20009;-77
2022/11/14 07:48:20;;;;;;;0.00;0.00;;;;;;;12.72;100.00;99689.47;6174795;23;20003;-78
2022/11/14 07:50:52;;;;;;;0.00;0.00;;;;;;;12.64;100.00;99687.38;6143366;23;20500;-78
2022/11/14 07:53:23;;;;;;;0.00;0.00;;;;;;;12.68;100.00;99693.91;6164895;23;20010;-79
2022/11/14 07:55:49;;;;;;;0.00;0.00;;;;;;;12.64;100.00;99698.38;6142894;23;20399;-79
2022/11/14 07:58:25;;;;;;;0.00;0.00;;;;;;;12.65;100.00;99699.19;6169341;23;20049;-79
2022/11/14 08:00:53;;;;;;;0.00;0.00;;;;;;;12.65;100.00;99700.00;6173250;23;20012;-79
2022/11/14 08:03:18;;;;;;;0.00;0.00;;;;;;;12.68;100.00;99688.44;6175337;23;20092;-79
2022/11/14 08:05:46;;;;;;;0.00;0.00;;;;;;;12.69;100.00;99690.06;6170587;23;20083;-79
2022/11/14 08:08:12;;;;;;;0.00;0.00;;;;;;;12.77;100.00;99674.84;6202056;23;20035;-77
2022/11/14 08:10:58;;;;;;;0.00;0.00;;;;;;;13.06;100.00;99688.38;6250427;23;20017;-78
2022/11/14 08:13:28;;;;;;;0.00;0.00;;;;;;;13.12;100.00;99669.06;6198680;23;20013;-76
2022/11/14 08:15:58;;;;;;;0.00;0.00;;;;;;;13.24;100.00;99667.47;6198855;23;20015;-77
2022/11/14 08:18:24;;;;;;;0.00;0.00;;;;;;;13.40;100.00;99686.44;6223514;23;20000;-77
2022/11/14 08:20:58;;;;;;;0.00;0.00;;;;;;;13.31;100.00;99669.81;6220789;23;20046;-76
2022/11/14 08:23:23;;;;;;;0.00;0.00;;;;;;;13.37;100.00;99665.88;6201792;23;20015;-78
2022/11/14 08:25:52;;;;;;;0.00;0.00;;;;;;;13.43;100.00;99689.41;6200521;23;20040;-80
2022/11/14 08:28:17;;;;;;;0.00;0.00;;;;;;;13.38;100.00;99673.00;6199681;23;20012;-76
2022/11/14 08:30:45;;;;;;;0.00;0.00;;;;;;;13.55;100.00;99690.81;6200782;23;20008;-76
2022/11/14 08:33:21;;;;;;;0.00;0.00;;;;;;;13.46;100.00;99673.44;6198486;23;20079;-75
2022/11/14 08:35:47;;;;;;;0.00;0.00;;;;;;;13.47;100.00;99688.81;6176128;23;20008;-77
2022/11/14 08:38:13;;;;;;;0.00;0.00;;;;;;;13.47;100.00;99691.53;6201157;23;20005;-77
2022/11/14 08:40:38;;;;;;;0.00;0.00;;;;;;;13.43;100.00;99688.56;6178090;23;20020;-78
2022/11/14 08:43:05;;;;;;;0.00;0.00;;;;;;;13.60;100.00;99679.75;6225113;23;20019;-77
2022/11/14 08:45:50;;;;;;;;;;;;;;;;;;;;;
2022/11/14 08:48:30;;;;;;;0.00;0.00;;;;;;;13.59;100.00;99689.09;6204270;23;20015;-77
2022/11/14 08:51:04;;;;;;;0.00;0.00;;;;;;;13.40;100.00;99687.28;6176459;23;20013;-78
2022/11/14 08:54:10;;;;;;;0.00;0.00;;;;;;;13.34;100.00;99682.97;6200102;23;20005;-77
2022/11/14 08:56:38;;;;;;;0.00;0.00;;;;;;;13.40;100.00;99670.78;6164032;23;20018;-74
2022/11/14 08:59:04;;;;;;;0.00;0.00;;;;;;;13.51;100.00;99681.59;6195033;23;20000;-74
2022/11/14 09:01:31;;;;;;;0.00;0.00;;;;;;;13.52;100.00;99683.19;6199344;23;20007;-75
2022/11/14 09:03:57;;;;;;;0.00;0.00;;;;;;;13.41;100.00;99677.91;6196131;23;20012;-75
2022/11/14 09:06:23;;;;;;;0.00;0.00;;;;;;;13.41;100.00;99669.66;6200348;23;20015;-75
2022/11/14 09:08:48;;;;;;;0.00;0.00;;;;;;;13.51;100.00;99670.59;6198591;23;20339;-74
2022/11/14 09:11:16;;;;;;;0.00;0.00;;;;;;;13.56;100.00;99673.22;6172173;23;20012;-75
2022/11/14 09:13:52;;;;;;;0.00;0.00;;;;;;;13.57;100.00;99669.38;6224530;23;20022;-73
2022/11/14 09:16:17;;;;;;;0.00;0.00;;;;;;;13.57;100.00;99664.69;6224877;23;20000;-74
2022/11/14 09:18:43;;;;;;;0.00;0.00;;;;;;;13.64;100.00;99675.28;6175826;23;20020;-74
2022/11/14 09:21:09;;;;;;;0.10;0.10;;;;;;;13.61;100.00;99671.22;6223708;23;20035;-75
2022/11/14 09:23:35;;;;;;;0.00;0.00;;;;;;;13.66;100.00;99662.03;6197616;23;20012;-75
2022/11/14 09:26:27;;;;;;;0.00;0.00;;;;;;;13.78;100.00;99659.63;6221573;23;20028;-73
2022/11/14 09:29:09;;;;;;;;;;;;;;;;;;;;;
2022/11/14 09:34:36;;;;;;;0.00;0.00;;;;;;;14.40;100.00;99618.97;6201905;23;20016;-74
2022/11/14 09:37:11;;;;;;;0.00;0.00;;;;;;;14.69;100.00;99632.31;6199082;23;20007;-74
2022/11/14 09:39:39;;;;;;;0.00;0.00;;;;;;;14.79;100.00;99634.81;6221194;23;20503;-74
2022/11/14 09:42:47;;;;;;;0.00;0.00;;;;;;;14.86;100.00;99650.06;6196922;23;20312;-73
2022/11/14 09:45:16;;;;;;;0.00;0.00;;;;;;;14.79;100.00;99636.75;6170259;23;20028;-75
2022/11/14 09:47:50;;;;;;;0.00;0.00;;;;;;;14.71;100.00;99638.31;6223149;23;20028;-74
2022/11/14 09:50:18;;;;;;;0.10;0.10;;;;;;;14.54;100.00;99646.41;6171630;23;20013;-74
2022/11/14 09:52:51;;;;;;;0.00;0.00;;;;;;;14.29;100.00;99637.63;6198140;23;20008;-74
2022/11/14 09:55:19;;;;;;;0.00;0.00;;;;;;;14.23;100.00;99636.91;6222519;23;20035;-74
2022/11/14 09:57:45;;;;;;;0.00;0.00;;;;;;;14.27;100.00;99637.13;6174399;23;19993;-74
2022/11/14 10:00:24;;;;;;;0.00;0.00;;;;;;;14.36;100.00;99640.75;6150249;23;20092;-75
2022/11/14 10:03:24;;;;;;;;;;;;;;;;;;;;;
2022/11/14 10:06:02;;;;;;;0.00;0.00;;;;;;;15.00;100.00;99637.06;6222768;23;20028;-73
2022/11/14 10:08:44;;;;;;;0.00;0.00;;;;;;;15.21;100.00;99637.31;6195963;23;20005;-73
2022/11/14 10:11:53;;;;;;;0.00;0.00;;;;;;;15.63;100.00;99620.47;6220045;23;20100;-74
2022/11/14 10:15:01;;;;;;;;;;;;;;;;;;;;;
2022/11/14 10:17:58;;;;;;;0.00;0.00;;;;;;;22.05;100.00;99633.06;6222284;23;20020;-75
2022/11/14 10:20:40;;;;;;;0.00;0.00;;;;;;;27.10;100.00;99645.88;6200661;23;20005;-74
2022/11/14 10:23:31;;;;;;;0.00;0.00;;;;;;;30.29;100.00;99659.84;6199549;23;20012;-74
2022/11/14 10:26:00;;;;;;;0.00;0.00;;;;;;;32.25;100.00;99657.84;6200852;23;20000;-81
2022/11/14 10:28:38;;;;;;;0.00;0.00;;;;;;;32.71;100.00;99647.66;6204488;23;20004;-74
2022/11/14 10:31:38;;;;;;;0.00;0.00;;;;;;;34.21;100.00;99633.09;6197785;23;20032;-73
2022/11/14 10:34:18;;;;;;;0.00;0.00;;;;;;;33.67;99.34;99634.50;6199077;23;20060;-75
2022/11/14 10:37:32;;;;;;;0.00;0.00;;;;;;;33.36;100.00;99637.69;6199612;22;20000;-73
2022/11/14 10:40:29;;;;;;;0.00;0.00;;;;;;;34.52;95.85;99641.97;6133542;23;20046;-74
2022/11/14 10:43:02;;;;;;;0.00;0.00;;;;;;;34.81;94.62;99624.09;6200104;23;20035;-73
2022/11/14 10:45:49;;;;;;;0.00;0.00;;;;;;;35.95;91.17;99621.63;6197878;23;20019;-74
2022/11/14 10:48:27;;;;;;;0.00;0.00;;;;;;;36.07;88.34;99614.28;6227029;23;20081;-73
2022/11/14 10:51:00;;;;;;;0.00;0.00;;;;;;;36.00;90.36;99615.31;6198375;23;20016;-76
2022/11/14 10:54:06;;;;;;;0.00;0.00;;;;;;;35.37;91.88;99624.78;6202075;23;20011;-73
2022/11/14 10:56:32;;;;;;;0.00;0.00;;;;;;;31.19;94.34;99611.97;6225164;23;20046;-76
2022/11/14 10:58:57;;;;;;;0.00;0.00;;;;;;;28.37;100.00;99608.94;6198530;23;20035;-75
2022/11/14 11:01:34;;;;;;;0.00;0.00;;;;;;;27.21;100.00;99595.41;6200871;23;20004;-74
2022/11/14 11:04:25;;;;;;;0.00;0.00;;;;;;;26.58;100.00;99592.84;6224731;23;20000;-75
2022/11/14 11:06:56;;;;;;;0.00;0.00;;;;;;;26.86;100.00;99603.34;6185868;23;20031;-74
2022/11/14 11:12:44;;;;;;;0.00;0.00;;;;;;;26.99;100.00;99589.75;6191224;23;20013;-72
2022/11/14 11:15:29;;;;;;;0.00;0.00;;;;;;;27.57;100.00;99584.19;6167616;23;20592;-73
2022/11/14 11:17:55;;;;;;;;;;;;;;;30.28;100.00;99601.06;6168770;23;20001;-72
2022/11/14 11:20:37;;;;;;;0.00;0.00;;;;;;;33.85;100.00;99600.84;6197357;23;20538;-73
2022/11/14 11:23:09;;;;;;;0.00;0.00;;;;;;;34.63;89.49;99606.78;6168851;23;20065;-72
2022/11/14 11:25:36;;;;;;;0.00;0.00;;;;;;;32.18;97.13;99593.72;6165767;23;20001;-74
2022/11/14 11:28:14;;;;;;;0.00;0.00;;;;;;;30.58;100.00;99591.06;6193588;23;20008;-73
2022/11/14 11:30:57;;;;;;;0.00;0.00;;;;;;;31.12;100.00;99591.13;6165228;23;20027;-74
2022/11/14 11:33:28;;;;;;;0.00;0.00;;;;;;;29.33;100.00;99580.66;6168284;23;20005;-73
2022/11/14 11:36:00;;;;;;;0.00;0.00;;;;;;;28.12;100.00;99585.72;6166635;23;20009;-73
2022/11/14 11:38:31;;;;;;;0.00;0.00;;;;;;;26.33;100.00;99587.13;6196656;23;20020;-73
2022/11/14 11:41:16;;;;;;;0.00;0.00;;;;;;;24.56;100.00;99591.22;6194685;23;20020;-74
2022/11/14 11:43:51;;;;;;;0.00;0.00;;;;;;;22.89;100.00;99589.06;6195700;23;20005;-73
2022/11/14 11:46:59;;;;;;;0.00;0.00;;;;;;;21.48;100.00;99591.59;6169324;23;20169;-73
2022/11/14 11:49:47;;;;;;;0.00;0.00;;;;;;;20.75;100.00;99575.03;6142865;23;20036;-73
2022/11/14 11:52:39;;;;;;;0.00;0.00;;;;;;;20.30;100.00;99570.59;6167602;23;20113;-74
2022/11/14 11:55:08;;;;;;;0.00;0.00;;;;;;;20.09;100.00;99569.97;6160030;23;20008;-74
2022/11/14 11:57:43;;;;;;;0.00;0.00;;;;;;;19.95;100.00;99570.34;6167549;23;20051;-72
2022/11/14 12:00:20;;;;;;;0.00;0.00;;;;;;;19.56;100.00;99569.91;6166868;23;20065;-73
2022/11/14 12:02:51;;;;;;;0.00;0.00;;;;;;;19.57;100.00;99560.44;6167428;23;20005;-73
2022/11/14 12:05:23;;;;;;;0.00;0.00;;;;;;;21.01;100.00;99553.47;6165936;23;20052;-74
2022/11/14 12:08:16;;;;;;;0.00;0.00;;;;;;;21.92;100.00;99546.13;6195663;23;20024;-71
2022/11/14 12:10:54;;;;;;;0.00;0.00;;;;;;;21.21;100.00;99540.47;6191467;23;20011;-73
2022/11/14 12:13:22;;;;;;;0.00;0.00;;;;;;;20.78;100.00;99544.94;6169581;23;20063;-73
2022/11/14 12:16:26;;;;;;;0.00;0.00;;;;;;;19.97;100.00;99546.63;6192858;23;20001;-74
2022/11/14 12:19:20;;;;;;;0.00;0.00;;;;;;;19.34;100.00;99542.28;6165389;23;20340;-73
2022/11/14 12:22:01;;;;;;;0.00;0.00;;;;;;;18.83;100.00;99534.25;6195652;23;20008;-73
2022/11/14 12:24:37;;;;;;;0.00;0.00;;;;;;;19.11;100.00;99530.03;6165632;23;20019;-74
2022/11/14 12:27:21;;;;;;;0.00;0.00;;;;;;;19.11;100.00;99533.63;6196263;23;20028;-73
2022/11/14 12:30:16;;;;;;;0.00;0.00;;;;;;;18.60;100.00;99524.72;6168295;23;20081;-73
2022/11/14 12:32:59;;;;;;;0.00;0.00;;;;;;;18.01;100.00;99520.25;6166762;23;20430;-73
2022/11/14 12:35:30;;;;;;;0.00;0.00;;;;;;;17.74;100.00;99523.19;6168447;23;20073;-73
2022/11/14 12:37:57;;;;;;;0.00;0.00;;;;;;;17.63;100.00;99517.22;6193608;23;20040;-73
2022/11/14 12:40:31;;;;;;;0.00;0.00;;;;;;;17.76;100.00;99517.31;6195986;23;20001;-72
2022/11/14 12:43:00;;;;;;;0.00;0.00;;;;;;;17.68;100.00;99513.44;6194592;23;20008;-73
2022/11/14 12:45:41;;;;;;;0.00;0.00;;;;;;;17.54;100.00;99516.50;6192322;23;20025;-73
2022/11/14 12:48:28;;;;;;;0.00;0.00;;;;;;;17.51;100.00;99514.41;6166765;23;20005;-73
2022/11/14 12:50:58;;;;;;;0.00;0.00;;;;;;;17.41;100.00;99503.72;6167887;23;20012;-73
2022/11/14 12:53:35;;;;;;;0.00;0.00;;;;;;;17.41;100.00;99509.25;6194847;23;20096;-74
2022/11/14 12:56:23;;;;;;;0.00;0.00;;;;;;;17.39;100.00;99494.94;6192528;23;20055;-74